Terminal Aerodrome Forecast
Issued by NWS Kansas City/Pleasant Hill, MO

Home | Current Version | Previous Version | Text Only | Print | Product List | Glossary On
Versions: 1 2 3 4 5 6 7 8 9 10 11 12 13
000
FTUS43 KEAX 281100
TAFMCI
TAF
KMCI 281120Z 2812/2912 15015KT P6SM SCT200
     FM281600 19018G27KT P6SM SCT200
     FM290200 25014G22KT P6SM FEW200
     FM290500 31018G27KT P6SM BKN050=

USA.gov is the U.S. government's official web portal to all federal, state and local government web resources and services.